Wetterdaten: aktuell Montag, 22.05.2017 21:00
Datum Zeit Temp. A. Feuchte A. Luftdruck Regen Wind Richtung Richtung Sonnenschein ET UV Solar Taupunkt Windchill Windben
22.05.2017 21:00 17,4 C 52 % 1017,6 hPa 0,0 l/m 0,0 km/h (0 Bft) NO 44 0 min 0,026 mm 0,0 UV-I 0 W/m 7,4 C 17,4 C 0,0 km/h (0 Bft)
22.05.2017 20:00 19,7 C 40 % 1017,9 hPa 0,0 l/m 0,0 km/h (0 Bft) NO 44 0 min 0,153 mm 0,0 UV-I 35 W/m 5,7 C 19,7 C 1,6 km/h (1 Bft)
22.05.2017 19:00 20,6 C 39 % 1018,2 hPa 0,0 l/m 0,5 km/h (0 Bft) N-NW 333 40 min 0,254 mm 0,5 UV-I 72 W/m 6,2 C 20,6 C 3,2 km/h (1 Bft)
22.05.2017 18:00 21,3 C 39 % 1018,6 hPa 0,0 l/m 1,5 km/h (1 Bft) O-NO 73 60 min 0,254 mm 1,1 UV-I 338 W/m 6,8 C 21,3 C 6,4 km/h (2 Bft)
22.05.2017 17:00 21,8 C 35 % 1019,1 hPa 0,0 l/m 3,8 km/h (1 Bft) O-NO 60 60 min 0,381 mm 1,9 UV-I 459 W/m 5,7 C 21,8 C 14,5 km/h (3 Bft)
22.05.2017 16:00 21,9 C 39 % 1019,4 hPa 0,0 l/m 2,8 km/h (1 Bft) O 89 60 min 0,508 mm 3,2 UV-I 708 W/m 7,3 C 21,9 C 11,3 km/h (2 Bft)
22.05.2017 15:00 20,9 C 39 % 1020,2 hPa 0,0 l/m 6,2 km/h (2 Bft) N-NO 12 60 min 0,508 mm 4,3 UV-I 784 W/m 6,4 C 20,9 C 14,5 km/h (3 Bft)
22.05.2017 14:00 21,1 C 40 % 1020,9 hPa 0,0 l/m 3,6 km/h (1 Bft) N 360 60 min 0,508 mm 4,8 UV-I 752 W/m 7,0 C 21,1 C 16,1 km/h (3 Bft)
22.05.2017 13:00 20,0 C 41 % 1021,3 hPa 0,0 l/m 3,1 km/h (1 Bft) O 89 60 min 0,381 mm 5,4 UV-I 849 W/m 6,3 C 20,0 C 12,9 km/h (3 Bft)
22.05.2017 12:00 19,3 C 44 % 1021,8 hPa 0,0 l/m 3,0 km/h (1 Bft) O 80 55 min 0,381 mm 4,9 UV-I 826 W/m 6,7 C 19,3 C 16,1 km/h (3 Bft)
22.05.2017 11:00 18,1 C 49 % 1022,2 hPa 0,0 l/m 1,5 km/h (1 Bft) O-NO 67 10 min 0,101 mm 2,9 UV-I 424 W/m 7,2 C 18,1 C 11,3 km/h (2 Bft)
22.05.2017 10:00 16,7 C 56 % 1022,6 hPa 0,0 l/m 2,2 km/h (1 Bft) NO 55 0 min 0,101 mm 2,0 UV-I 195 W/m 7,9 C 16,7 C 12,9 km/h (3 Bft)
22.05.2017 09:00 14,8 C 66 % 1022,9 hPa 0,0 l/m 1,1 km/h (1 Bft) O-NO 57 0 min 0,051 mm 1,4 UV-I 146 W/m 8,5 C 14,8 C 6,4 km/h (2 Bft)
22.05.2017 08:00 13,7 C 73 % 1022,9 hPa 0,0 l/m 0,9 km/h (0 Bft) O-NO 76 55 min 0,102 mm 0,9 UV-I 113 W/m 8,9 C 13,7 C 6,4 km/h (2 Bft)
22.05.2017 07:00 10,7 C 85 % 1023,1 hPa 0,0 l/m 0,0 km/h (0 Bft) SO 139 0 min 0,000 mm 0,5 UV-I 123 W/m 8,3 C 10,7 C 0,0 km/h (0 Bft)
22.05.2017 06:00 9,3 C 88 % 1023,0 hPa 0,0 l/m 0,0 km/h (0 Bft) NO 43 25 min 0,000 mm 0,0 UV-I 44 W/m 7,4 C 9,3 C 0,0 km/h (0 Bft)
22.05.2017 05:00 9,2 C 87 % 1022,9 hPa 0,0 l/m 0,0 km/h (0 Bft) N 0 0 min 0,000 mm 0,0 UV-I 0 W/m 7,2 C 9,2 C 0,0 km/h (0 Bft)
22.05.2017 04:00 8,9 C 89 % 1023,1 hPa 0,0 l/m 0,0 km/h (0 Bft) N 0 0 min 0,000 mm 0,0 UV-I 0 W/m 7,2 C 8,9 C 0,0 km/h (0 Bft)
22.05.2017 03:00 9,1 C 88 % 1023,3 hPa 0,0 l/m 0,0 km/h (0 Bft) N 0 0 min 0,000 mm 0,0 UV-I 0 W/m 7,2 C 9,1 C 0,0 km/h (0 Bft)
22.05.2017 02:00 9,7 C 86 % 1023,4 hPa 0,0 l/m 0,0 km/h (0 Bft) N 0 0 min 0,000 mm 0,0 UV-I 0 W/m 7,5 C 9,7 C 0,0 km/h (0 Bft)
22.05.2017 01:00 10,5 C 85 % 1023,6 hPa 0,0 l/m 0,0 km/h (0 Bft) N 0 0 min 0,025 mm 0,0 UV-I 0 W/m 8,1 C 10,5 C 0,0 km/h (0 Bft)
22.05.2017 00:00 11,6 C 82 % 1024,0 hPa 0,0 l/m 0,0 km/h (0 Bft) N 0 0 min 0,025 mm 0,0 UV-I 0 W/m 8,6 C 11,6 C 0,0 km/h (0 Bft)
_ Min-Zeit 03:35 17:00 20:55 - 00:00 - - - - - - 13:40 03:35 00:00
Minimum _ 8,8 C 35 % 1017,6 hPa - 0,0 km/h (0 Bft) - - - - - - 4,8 C 8,8 C 0,0 km/h (0 Bft)
_ Max-Zeit 16:50 03:20 00:00 00:00 13:45 - - 05:25 13:05 12:45 13:45 07:50 16:25 09:30
Maximum _ 22,5 C 89 % 1024,0 hPa 0,0 l/m 7,1 km/h
NO (2 Bft)
- - 5 min 0,508 mm 5,6 UV-I 911 W/m 9,4 C 22,4 C 17,7 km/h
O-NO (3 Bft)
Durchschnitt _ 15,8 C 61 % 1021,5 hPa #0,0 l/m 1,2 km/h (1 Bft) O-NO - #9:05 h #3,734 mm 2,8 UV-I 384 W/m 7,4 C 15,8 C 5,2 km/h (1 Bft)